sensor_id;sensor_type;location;lat;lon;timestamp;temperature;humidity
45619;DHT22;31343;47.520;19.144;2024-01-06T00:01:11;5.70;99.90
45619;DHT22;31343;47.520;19.144;2024-01-06T00:03:37;5.70;99.90
45619;DHT22;31343;47.520;19.144;2024-01-06T00:06:03;5.70;99.90
45619;DHT22;31343;47.520;19.144;2024-01-06T00:08:29;5.70;99.90
45619;DHT22;31343;47.520;19.144;2024-01-06T00:10:54;5.60;99.90
45619;DHT22;31343;47.520;19.144;2024-01-06T00:13:20;5.60;99.90
45619;DHT22;31343;47.520;19.144;2024-01-06T00:15:46;5.60;99.90
45619;DHT22;31343;47.520;19.144;2024-01-06T00:18:12;5.50;99.90
45619;DHT22;31343;47.520;19.144;2024-01-06T00:20:37;5.50;99.90
45619;DHT22;31343;47.520;19.144;2024-01-06T00:23:03;5.50;99.90
45619;DHT22;31343;47.520;19.144;2024-01-06T00:25:29;5.50;99.90
45619;DHT22;31343;47.520;19.144;2024-01-06T00:27:54;5.60;99.90
45619;DHT22;31343;47.520;19.144;2024-01-06T00:30:20;5.50;99.90
45619;DHT22;31343;47.520;19.144;2024-01-06T00:32:46;5.50;99.90
45619;DHT22;31343;47.520;19.144;2024-01-06T00:35:12;5.50;99.90
45619;DHT22;31343;47.520;19.144;2024-01-06T00:37:38;5.60;99.90
45619;DHT22;31343;47.520;19.144;2024-01-06T00:40:04;5.60;99.90
45619;DHT22;31343;47.520;19.144;2024-01-06T00:42:30;5.70;99.90
45619;DHT22;31343;47.520;19.144;2024-01-06T00:44:56;5.60;99.90
45619;DHT22;31343;47.520;19.144;2024-01-06T00:47:21;5.60;99.90
45619;DHT22;31343;47.520;19.144;2024-01-06T00:49:49;5.60;99.90
45619;DHT22;31343;47.520;19.144;2024-01-06T00:52:15;5.60;99.90
45619;DHT22;31343;47.520;19.144;2024-01-06T00:54:41;5.60;99.90
45619;DHT22;31343;47.520;19.144;2024-01-06T00:57:06;5.50;99.90
45619;DHT22;31343;47.520;19.144;2024-01-06T00:59:33;5.50;99.90
45619;DHT22;31343;47.520;19.144;2024-01-06T01:01:58;5.50;99.90
45619;DHT22;31343;47.520;19.144;2024-01-06T01:04:24;5.50;99.90
45619;DHT22;31343;47.520;19.144;2024-01-06T01:06:50;5.40;99.90
45619;DHT22;31343;47.520;19.144;2024-01-06T01:09:15;5.40;99.90
45619;DHT22;31343;47.520;19.144;2024-01-06T01:11:41;5.40;99.90
45619;DHT22;31343;47.520;19.144;2024-01-06T01:14:07;5.40;99.90
45619;DHT22;31343;47.520;19.144;2024-01-06T01:16:33;5.40;99.90
45619;DHT22;31343;47.520;19.144;2024-01-06T01:18:59;5.40;99.90
45619;DHT22;31343;47.520;19.144;2024-01-06T01:21:24;5.40;99.90
45619;DHT22;31343;47.520;19.144;2024-01-06T01:23:50;5.30;99.90
45619;DHT22;31343;47.520;19.144;2024-01-06T01:26:16;5.30;99.90
45619;DHT22;31343;47.520;19.144;2024-01-06T01:28:41;5.20;99.90
45619;DHT22;31343;47.520;19.144;2024-01-06T01:31:08;5.20;99.90
45619;DHT22;31343;47.520;19.144;2024-01-06T01:33:33;5.00;99.90
45619;DHT22;31343;47.520;19.144;2024-01-06T01:35:59;5.10;99.90
45619;DHT22;31343;47.520;19.144;2024-01-06T01:38:25;5.20;99.90
45619;DHT22;31343;47.520;19.144;2024-01-06T01:40:50;5.20;99.90
45619;DHT22;31343;47.520;19.144;2024-01-06T01:43:19;5.20;99.90
45619;DHT22;31343;47.520;19.144;2024-01-06T01:45:52;5.20;99.90
45619;DHT22;31343;47.520;19.144;2024-01-06T01:48:20;5.20;99.90
45619;DHT22;31343;47.520;19.144;2024-01-06T01:50:47;5.20;99.90
45619;DHT22;31343;47.520;19.144;2024-01-06T01:53:13;5.30;99.90
45619;DHT22;31343;47.520;19.144;2024-01-06T01:55:41;5.40;99.90
45619;DHT22;31343;47.520;19.144;2024-01-06T01:58:08;5.40;99.90
45619;DHT22;31343;47.520;19.144;2024-01-06T02:00:34;5.40;99.90
45619;DHT22;31343;47.520;19.144;2024-01-06T02:03:01;5.40;99.90
45619;DHT22;31343;47.520;19.144;2024-01-06T02:05:28;5.50;99.90
45619;DHT22;31343;47.520;19.144;2024-01-06T02:07:54;5.40;99.90
45619;DHT22;31343;47.520;19.144;2024-01-06T02:10:19;5.50;99.90
45619;DHT22;31343;47.520;19.144;2024-01-06T02:12:45;5.50;99.90
45619;DHT22;31343;47.520;19.144;2024-01-06T02:15:12;5.60;99.90
45619;DHT22;31343;47.520;19.144;2024-01-06T02:17:38;5.60;99.90
45619;DHT22;31343;47.520;19.144;2024-01-06T02:20:09;5.60;99.90
45619;DHT22;31343;47.520;19.144;2024-01-06T02:22:36;5.60;99.90
45619;DHT22;31343;47.520;19.144;2024-01-06T02:25:03;5.50;99.90
45619;DHT22;31343;47.520;19.144;2024-01-06T02:27:33;5.50;99.90
45619;DHT22;31343;47.520;19.144;2024-01-06T02:29:58;5.50;99.90
45619;DHT22;31343;47.520;19.144;2024-01-06T02:32:24;5.50;99.90
45619;DHT22;31343;47.520;19.144;2024-01-06T02:34:50;5.50;99.90
45619;DHT22;31343;47.520;19.144;2024-01-06T02:37:15;5.50;99.90
45619;DHT22;31343;47.520;19.144;2024-01-06T02:39:41;5.50;99.90
45619;DHT22;31343;47.520;19.144;2024-01-06T02:42:07;5.60;99.90
45619;DHT22;31343;47.520;19.144;2024-01-06T02:44:32;5.70;99.90
45619;DHT22;31343;47.520;19.144;2024-01-06T02:46:58;5.60;99.90
45619;DHT22;31343;47.520;19.144;2024-01-06T02:49:23;5.60;99.90
45619;DHT22;31343;47.520;19.144;2024-01-06T02:51:49;5.60;99.90
45619;DHT22;31343;47.520;19.144;2024-01-06T02:54:15;5.60;99.90
45619;DHT22;31343;47.520;19.144;2024-01-06T02:56:40;5.70;99.90
45619;DHT22;31343;47.520;19.144;2024-01-06T02:59:06;5.70;99.90
45619;DHT22;31343;47.520;19.144;2024-01-06T03:01:32;5.70;99.90
45619;DHT22;31343;47.520;19.144;2024-01-06T03:03:57;5.70;99.90
45619;DHT22;31343;47.520;19.144;2024-01-06T03:06:23;5.80;99.90
45619;DHT22;31343;47.520;19.144;2024-01-06T03:08:49;5.80;99.90
45619;DHT22;31343;47.520;19.144;2024-01-06T03:11:15;5.70;99.90
45619;DHT22;31343;47.520;19.144;2024-01-06T03:13:40;5.80;99.90
45619;DHT22;31343;47.520;19.144;2024-01-06T03:16:06;5.80;99.90
45619;DHT22;31343;47.520;19.144;2024-01-06T03:18:32;5.80;99.90
45619;DHT22;31343;47.520;19.144;2024-01-06T03:20:57;5.80;99.90
45619;DHT22;31343;47.520;19.144;2024-01-06T03:23:23;5.80;99.90
45619;DHT22;31343;47.520;19.144;2024-01-06T03:25:49;5.80;99.90
45619;DHT22;31343;47.520;19.144;2024-01-06T03:28:14;5.90;99.90
45619;DHT22;31343;47.520;19.144;2024-01-06T03:30:40;5.90;99.90
45619;DHT22;31343;47.520;19.144;2024-01-06T03:33:06;6.00;99.90
45619;DHT22;31343;47.520;19.144;2024-01-06T03:35:33;6.00;99.90
45619;DHT22;31343;47.520;19.144;2024-01-06T03:37:58;5.90;99.90
45619;DHT22;31343;47.520;19.144;2024-01-06T03:40:24;5.90;99.90
45619;DHT22;31343;47.520;19.144;2024-01-06T03:42:49;5.70;99.90
45619;DHT22;31343;47.520;19.144;2024-01-06T03:45:16;5.80;99.90
45619;DHT22;31343;47.520;19.144;2024-01-06T03:47:42;5.80;99.90
45619;DHT22;31343;47.520;19.144;2024-01-06T03:50:08;5.90;99.90
45619;DHT22;31343;47.520;19.144;2024-01-06T03:52:33;5.90;99.90
45619;DHT22;31343;47.520;19.144;2024-01-06T03:54:59;6.00;99.90
45619;DHT22;31343;47.520;19.144;2024-01-06T03:57:25;6.00;99.90
45619;DHT22;31343;47.520;19.144;2024-01-06T03:59:50;6.00;99.90
45619;DHT22;31343;47.520;19.144;2024-01-06T04:02:16;6.00;99.90
45619;DHT22;31343;47.520;19.144;2024-01-06T04:04:42;6.00;99.90
45619;DHT22;31343;47.520;19.144;2024-01-06T04:07:07;6.00;99.90
45619;DHT22;31343;47.520;19.144;2024-01-06T04:09:33;5.80;99.90
45619;DHT22;31343;47.520;19.144;2024-01-06T04:11:59;5.80;99.90
45619;DHT22;31343;47.520;19.144;2024-01-06T04:14:26;5.80;99.90
45619;DHT22;31343;47.520;19.144;2024-01-06T04:16:51;5.90;99.90
45619;DHT22;31343;47.520;19.144;2024-01-06T04:19:18;5.90;99.90
45619;DHT22;31343;47.520;19.144;2024-01-06T04:21:45;5.90;99.90
45619;DHT22;31343;47.520;19.144;2024-01-06T04:24:11;6.00;99.90
45619;DHT22;31343;47.520;19.144;2024-01-06T04:26:37;6.10;99.90
45619;DHT22;31343;47.520;19.144;2024-01-06T04:29:02;6.10;99.90
45619;DHT22;31343;47.520;19.144;2024-01-06T04:31:28;6.10;99.90
45619;DHT22;31343;47.520;19.144;2024-01-06T04:33:54;6.20;99.90
45619;DHT22;31343;47.520;19.144;2024-01-06T04:36:19;5.90;99.90
45619;DHT22;31343;47.520;19.144;2024-01-06T04:38:45;6.00;99.90
45619;DHT22;31343;47.520;19.144;2024-01-06T04:41:11;6.00;99.90
45619;DHT22;31343;47.520;19.144;2024-01-06T04:43:36;6.10;99.90
45619;DHT22;31343;47.520;19.144;2024-01-06T04:46:02;6.20;99.90
45619;DHT22;31343;47.520;19.144;2024-01-06T04:48:28;6.10;99.90
45619;DHT22;31343;47.520;19.144;2024-01-06T04:50:53;6.10;99.90
45619;DHT22;31343;47.520;19.144;2024-01-06T04:53:19;6.20;99.90
45619;DHT22;31343;47.520;19.144;2024-01-06T04:55:45;6.20;99.90
45619;DHT22;31343;47.520;19.144;2024-01-06T04:58:11;6.20;99.90
45619;DHT22;31343;47.520;19.144;2024-01-06T05:00:36;6.20;99.90
45619;DHT22;31343;47.520;19.144;2024-01-06T05:03:02;6.20;99.90
45619;DHT22;31343;47.520;19.144;2024-01-06T05:05:28;6.20;99.90
45619;DHT22;31343;47.520;19.144;2024-01-06T05:07:53;6.10;99.90
45619;DHT22;31343;47.520;19.144;2024-01-06T05:10:19;6.10;99.90
45619;DHT22;31343;47.520;19.144;2024-01-06T05:12:44;6.20;99.90
45619;DHT22;31343;47.520;19.144;2024-01-06T05:15:12;6.20;99.90
45619;DHT22;31343;47.520;19.144;2024-01-06T05:17:37;6.20;99.90
45619;DHT22;31343;47.520;19.144;2024-01-06T05:20:03;6.10;99.90
45619;DHT22;31343;47.520;19.144;2024-01-06T05:22:29;6.10;99.90
45619;DHT22;31343;47.520;19.144;2024-01-06T05:24:55;6.10;99.90
45619;DHT22;31343;47.520;19.144;2024-01-06T05:27:21;6.10;99.90
45619;DHT22;31343;47.520;19.144;2024-01-06T05:29:46;6.10;99.90
45619;DHT22;31343;47.520;19.144;2024-01-06T05:32:15;6.10;99.90
45619;DHT22;31343;47.520;19.144;2024-01-06T05:34:41;6.10;99.90
45619;DHT22;31343;47.520;19.144;2024-01-06T05:37:06;6.20;99.90
45619;DHT22;31343;47.520;19.144;2024-01-06T05:39:32;6.20;99.90
45619;DHT22;31343;47.520;19.144;2024-01-06T05:41:58;6.20;99.90
45619;DHT22;31343;47.520;19.144;2024-01-06T05:44:23;6.30;99.90
45619;DHT22;31343;47.520;19.144;2024-01-06T05:46:50;6.10;99.90
45619;DHT22;31343;47.520;19.144;2024-01-06T05:49:16;6.20;99.90
45619;DHT22;31343;47.520;19.144;2024-01-06T05:51:45;6.30;99.90
45619;DHT22;31343;47.520;19.144;2024-01-06T05:54:11;6.30;99.90
45619;DHT22;31343;47.520;19.144;2024-01-06T05:56:37;6.30;99.90
45619;DHT22;31343;47.520;19.144;2024-01-06T05:59:03;6.30;99.90
45619;DHT22;31343;47.520;19.144;2024-01-06T06:01:29;6.30;99.90
45619;DHT22;31343;47.520;19.144;2024-01-06T06:03:54;6.30;99.90
45619;DHT22;31343;47.520;19.144;2024-01-06T06:06:20;6.30;99.90
45619;DHT22;31343;47.520;19.144;2024-01-06T06:08:46;6.40;99.90
45619;DHT22;31343;47.520;19.144;2024-01-06T06:11:12;6.40;99.90
45619;DHT22;31343;47.520;19.144;2024-01-06T06:13:41;6.40;99.90
45619;DHT22;31343;47.520;19.144;2024-01-06T06:16:09;6.30;99.90
45619;DHT22;31343;47.520;19.144;2024-01-06T06:18:35;6.40;99.90
45619;DHT22;31343;47.520;19.144;2024-01-06T06:21:00;6.50;99.90
45619;DHT22;31343;47.520;19.144;2024-01-06T06:23:27;6.40;99.90
45619;DHT22;31343;47.520;19.144;2024-01-06T06:25:54;6.50;99.90
45619;DHT22;31343;47.520;19.144;2024-01-06T06:28:20;6.50;99.90
45619;DHT22;31343;47.520;19.144;2024-01-06T06:30:45;6.50;99.90
45619;DHT22;31343;47.520;19.144;2024-01-06T06:33:11;6.40;99.90
45619;DHT22;31343;47.520;19.144;2024-01-06T06:35:36;6.50;99.90
45619;DHT22;31343;47.520;19.144;2024-01-06T06:38:02;6.40;99.90
45619;DHT22;31343;47.520;19.144;2024-01-06T06:40:28;6.50;99.90
45619;DHT22;31343;47.520;19.144;2024-01-06T06:42:54;6.50;99.90
45619;DHT22;31343;47.520;19.144;2024-01-06T06:45:20;6.50;99.90
45619;DHT22;31343;47.520;19.144;2024-01-06T06:47:48;6.40;99.90
45619;DHT22;31343;47.520;19.144;2024-01-06T06:50:16;6.50;99.90
45619;DHT22;31343;47.520;19.144;2024-01-06T06:52:42;6.50;99.90
45619;DHT22;31343;47.520;19.144;2024-01-06T06:55:08;6.50;99.90
45619;DHT22;31343;47.520;19.144;2024-01-06T06:57:33;6.50;99.90
45619;DHT22;31343;47.520;19.144;2024-01-06T06:59:59;6.50;99.90
45619;DHT22;31343;47.520;19.144;2024-01-06T07:02:26;6.50;99.90
45619;DHT22;31343;47.520;19.144;2024-01-06T07:04:51;6.30;99.90
45619;DHT22;31343;47.520;19.144;2024-01-06T07:07:17;6.30;99.90
45619;DHT22;31343;47.520;19.144;2024-01-06T07:09:43;6.30;99.90
45619;DHT22;31343;47.520;19.144;2024-01-06T07:12:08;6.30;99.90
45619;DHT22;31343;47.520;19.144;2024-01-06T07:14:34;6.40;99.90
45619;DHT22;31343;47.520;19.144;2024-01-06T07:17:00;6.30;99.90
45619;DHT22;31343;47.520;19.144;2024-01-06T07:19:25;6.30;99.90
45619;DHT22;31343;47.520;19.144;2024-01-06T07:21:51;6.30;99.90
45619;DHT22;31343;47.520;19.144;2024-01-06T07:24:16;6.40;99.90
45619;DHT22;31343;47.520;19.144;2024-01-06T07:26:43;6.40;99.90
45619;DHT22;31343;47.520;19.144;2024-01-06T07:29:08;6.40;99.90
45619;DHT22;31343;47.520;19.144;2024-01-06T07:31:34;6.40;99.90
45619;DHT22;31343;47.520;19.144;2024-01-06T07:34:00;6.40;99.90
45619;DHT22;31343;47.520;19.144;2024-01-06T07:36:26;6.30;99.90
45619;DHT22;31343;47.520;19.144;2024-01-06T07:38:51;6.40;99.90
45619;DHT22;31343;47.520;19.144;2024-01-06T07:41:18;6.40;99.90
45619;DHT22;31343;47.520;19.144;2024-01-06T07:43:43;6.40;99.90
45619;DHT22;31343;47.520;19.144;2024-01-06T07:46:09;6.40;99.90
45619;DHT22;31343;47.520;19.144;2024-01-06T07:48:35;6.50;99.90
45619;DHT22;31343;47.520;19.144;2024-01-06T07:51:02;6.40;99.90
45619;DHT22;31343;47.520;19.144;2024-01-06T07:53:29;6.30;99.90
45619;DHT22;31343;47.520;19.144;2024-01-06T07:55:54;6.30;99.90
45619;DHT22;31343;47.520;19.144;2024-01-06T07:58:21;6.30;99.90
45619;DHT22;31343;47.520;19.144;2024-01-06T08:00:47;6.30;99.90
45619;DHT22;31343;47.520;19.144;2024-01-06T08:03:13;6.40;99.90
45619;DHT22;31343;47.520;19.144;2024-01-06T08:05:39;6.50;99.90
45619;DHT22;31343;47.520;19.144;2024-01-06T08:08:05;6.50;99.90
45619;DHT22;31343;47.520;19.144;2024-01-06T08:10:32;6.60;99.90
45619;DHT22;31343;47.520;19.144;2024-01-06T08:12:57;6.60;99.90
45619;DHT22;31343;47.520;19.144;2024-01-06T08:15:23;6.60;99.90
45619;DHT22;31343;47.520;19.144;2024-01-06T08:17:49;6.70;99.90
45619;DHT22;31343;47.520;19.144;2024-01-06T08:20:14;6.60;99.90
45619;DHT22;31343;47.520;19.144;2024-01-06T08:22:40;6.70;99.90
45619;DHT22;31343;47.520;19.144;2024-01-06T08:25:07;6.70;99.90
45619;DHT22;31343;47.520;19.144;2024-01-06T08:27:33;6.80;99.90
45619;DHT22;31343;47.520;19.144;2024-01-06T08:30:00;6.80;99.90
45619;DHT22;31343;47.520;19.144;2024-01-06T08:32:25;6.80;99.90
45619;DHT22;31343;47.520;19.144;2024-01-06T08:34:51;6.90;99.90
45619;DHT22;31343;47.520;19.144;2024-01-06T08:37:17;6.80;99.90
45619;DHT22;31343;47.520;19.144;2024-01-06T08:39:43;6.80;99.90
45619;DHT22;31343;47.520;19.144;2024-01-06T08:42:09;6.80;99.90
45619;DHT22;31343;47.520;19.144;2024-01-06T08:44:34;6.80;99.90
45619;DHT22;31343;47.520;19.144;2024-01-06T08:47:00;6.90;99.90
45619;DHT22;31343;47.520;19.144;2024-01-06T08:49:26;6.90;99.90
45619;DHT22;31343;47.520;19.144;2024-01-06T08:51:51;6.90;99.90
45619;DHT22;31343;47.520;19.144;2024-01-06T08:54:17;6.90;99.90
45619;DHT22;31343;47.520;19.144;2024-01-06T08:56:43;6.90;99.90
45619;DHT22;31343;47.520;19.144;2024-01-06T08:59:09;7.00;99.90
45619;DHT22;31343;47.520;19.144;2024-01-06T09:01:34;7.00;99.90
45619;DHT22;31343;47.520;19.144;2024-01-06T09:04:01;7.00;99.90
45619;DHT22;31343;47.520;19.144;2024-01-06T09:06:28;7.00;99.90
45619;DHT22;31343;47.520;19.144;2024-01-06T09:08:53;7.00;99.90
45619;DHT22;31343;47.520;19.144;2024-01-06T09:11:19;7.00;99.90
45619;DHT22;31343;47.520;19.144;2024-01-06T09:13:45;7.00;99.90
45619;DHT22;31343;47.520;19.144;2024-01-06T09:16:10;7.00;99.90
45619;DHT22;31343;47.520;19.144;2024-01-06T09:18:36;7.10;99.90
45619;DHT22;31343;47.520;19.144;2024-01-06T09:21:02;7.10;99.90
45619;DHT22;31343;47.520;19.144;2024-01-06T09:23:28;7.10;99.90
45619;DHT22;31343;47.520;19.144;2024-01-06T09:25:54;7.20;99.90
45619;DHT22;31343;47.520;19.144;2024-01-06T09:28:20;7.20;99.90
45619;DHT22;31343;47.520;19.144;2024-01-06T09:30:49;7.30;99.90
45619;DHT22;31343;47.520;19.144;2024-01-06T09:33:15;7.30;99.90
45619;DHT22;31343;47.520;19.144;2024-01-06T09:35:42;7.20;99.90
45619;DHT22;31343;47.520;19.144;2024-01-06T09:38:10;7.30;99.90
45619;DHT22;31343;47.520;19.144;2024-01-06T09:40:41;7.40;99.90
45619;DHT22;31343;47.520;19.144;2024-01-06T09:43:09;7.30;99.90
45619;DHT22;31343;47.520;19.144;2024-01-06T09:45:35;7.40;99.90
45619;DHT22;31343;47.520;19.144;2024-01-06T09:48:08;7.40;99.90
45619;DHT22;31343;47.520;19.144;2024-01-06T09:50:35;7.40;99.90
45619;DHT22;31343;47.520;19.144;2024-01-06T09:53:02;7.40;99.90
45619;DHT22;31343;47.520;19.144;2024-01-06T09:55:31;7.40;99.90
45619;DHT22;31343;47.520;19.144;2024-01-06T09:57:56;7.40;99.90
45619;DHT22;31343;47.520;19.144;2024-01-06T10:00:23;7.50;99.90
45619;DHT22;31343;47.520;19.144;2024-01-06T10:02:49;7.50;99.90
45619;DHT22;31343;47.520;19.144;2024-01-06T10:05:18;7.60;99.90
45619;DHT22;31343;47.520;19.144;2024-01-06T10:07:47;7.60;99.90
45619;DHT22;31343;47.520;19.144;2024-01-06T10:10:15;7.60;99.90
45619;DHT22;31343;47.520;19.144;2024-01-06T10:12:42;7.60;99.90
45619;DHT22;31343;47.520;19.144;2024-01-06T10:15:09;7.60;99.90
45619;DHT22;31343;47.520;19.144;2024-01-06T10:17:39;7.70;99.90
45619;DHT22;31343;47.520;19.144;2024-01-06T10:20:09;7.60;99.90
45619;DHT22;31343;47.520;19.144;2024-01-06T10:22:41;7.60;99.90
45619;DHT22;31343;47.520;19.144;2024-01-06T10:25:08;7.60;99.90
45619;DHT22;31343;47.520;19.144;2024-01-06T10:27:38;7.60;99.90
45619;DHT22;31343;47.520;19.144;2024-01-06T10:30:08;7.60;99.90
45619;DHT22;31343;47.520;19.144;2024-01-06T10:32:35;7.60;99.90
45619;DHT22;31343;47.520;19.144;2024-01-06T10:35:02;7.70;99.90
45619;DHT22;31343;47.520;19.144;2024-01-06T10:37:29;7.70;99.90
45619;DHT22;31343;47.520;19.144;2024-01-06T10:40:17;7.70;99.90
45619;DHT22;31343;47.520;19.144;2024-01-06T10:42:43;7.80;99.90
45619;DHT22;31343;47.520;19.144;2024-01-06T10:45:11;7.80;99.90
45619;DHT22;31343;47.520;19.144;2024-01-06T10:47:41;7.70;99.90
45619;DHT22;31343;47.520;19.144;2024-01-06T10:50:08;7.70;99.90
45619;DHT22;31343;47.520;19.144;2024-01-06T10:52:34;7.80;99.90
45619;DHT22;31343;47.520;19.144;2024-01-06T10:55:01;7.80;99.90
45619;DHT22;31343;47.520;19.144;2024-01-06T10:57:28;7.70;99.90
45619;DHT22;31343;47.520;19.144;2024-01-06T10:59:58;7.70;99.90
45619;DHT22;31343;47.520;19.144;2024-01-06T11:02:24;7.80;99.90
45619;DHT22;31343;47.520;19.144;2024-01-06T11:04:51;7.70;99.90
45619;DHT22;31343;47.520;19.144;2024-01-06T11:07:19;7.70;99.90
45619;DHT22;31343;47.520;19.144;2024-01-06T11:10:06;7.70;99.90
45619;DHT22;31343;47.520;19.144;2024-01-06T11:12:34;7.70;99.90
45619;DHT22;31343;47.520;19.144;2024-01-06T11:14:59;7.60;99.90
45619;DHT22;31343;47.520;19.144;2024-01-06T11:20:22;7.70;99.90
45619;DHT22;31343;47.520;19.144;2024-01-06T11:22:49;7.70;99.90
45619;DHT22;31343;47.520;19.144;2024-01-06T11:25:17;7.70;99.90
45619;DHT22;31343;47.520;19.144;2024-01-06T11:27:45;7.70;99.90
45619;DHT22;31343;47.520;19.144;2024-01-06T11:30:25;7.80;99.90
45619;DHT22;31343;47.520;19.144;2024-01-06T11:32:52;7.80;99.90
45619;DHT22;31343;47.520;19.144;2024-01-06T11:35:20;7.80;99.90
45619;DHT22;31343;47.520;19.144;2024-01-06T11:42:42;7.70;99.90
45619;DHT22;31343;47.520;19.144;2024-01-06T11:45:08;7.70;99.90
45619;DHT22;31343;47.520;19.144;2024-01-06T11:47:34;7.70;99.90
45619;DHT22;31343;47.520;19.144;2024-01-06T11:50:02;7.70;99.90
45619;DHT22;31343;47.520;19.144;2024-01-06T11:52:31;7.80;99.90
45619;DHT22;31343;47.520;19.144;2024-01-06T11:54:58;7.80;99.90
45619;DHT22;31343;47.520;19.144;2024-01-06T11:57:28;7.80;99.90
45619;DHT22;31343;47.520;19.144;2024-01-06T11:59:54;7.80;99.90
45619;DHT22;31343;47.520;19.144;2024-01-06T12:02:21;7.90;99.90
45619;DHT22;31343;47.520;19.144;2024-01-06T12:04:53;7.80;99.90
45619;DHT22;31343;47.520;19.144;2024-01-06T12:07:20;8.00;99.90
45619;DHT22;31343;47.520;19.144;2024-01-06T12:09:48;8.00;99.90
45619;DHT22;31343;47.520;19.144;2024-01-06T12:12:17;8.10;99.90
45619;DHT22;31343;47.520;19.144;2024-01-06T12:14:43;8.10;99.90
45619;DHT22;31343;47.520;19.144;2024-01-06T12:17:11;8.20;99.90
45619;DHT22;31343;47.520;19.144;2024-01-06T12:19:40;8.30;99.90
45619;DHT22;31343;47.520;19.144;2024-01-06T12:22:12;8.30;99.90
45619;DHT22;31343;47.520;19.144;2024-01-06T12:24:39;8.20;99.90
45619;DHT22;31343;47.520;19.144;2024-01-06T12:27:09;8.20;99.90
45619;DHT22;31343;47.520;19.144;2024-01-06T12:29:40;8.20;99.90
45619;DHT22;31343;47.520;19.144;2024-01-06T12:32:07;8.10;99.90
45619;DHT22;31343;47.520;19.144;2024-01-06T12:34:34;8.10;99.90
45619;DHT22;31343;47.520;19.144;2024-01-06T12:37:00;8.10;99.90
45619;DHT22;31343;47.520;19.144;2024-01-06T12:39:28;8.10;99.90
45619;DHT22;31343;47.520;19.144;2024-01-06T12:41:55;8.10;99.90
45619;DHT22;31343;47.520;19.144;2024-01-06T12:44:21;8.20;99.90
45619;DHT22;31343;47.520;19.144;2024-01-06T12:46:47;8.20;99.90
45619;DHT22;31343;47.520;19.144;2024-01-06T12:49:13;8.20;99.90
45619;DHT22;31343;47.520;19.144;2024-01-06T12:51:39;8.20;99.90
45619;DHT22;31343;47.520;19.144;2024-01-06T12:54:05;8.20;99.90
45619;DHT22;31343;47.520;19.144;2024-01-06T12:56:31;8.10;99.90
45619;DHT22;31343;47.520;19.144;2024-01-06T12:58:57;7.90;99.90
45619;DHT22;31343;47.520;19.144;2024-01-06T13:01:22;8.00;99.90
45619;DHT22;31343;47.520;19.144;2024-01-06T13:03:48;7.90;99.90
45619;DHT22;31343;47.520;19.144;2024-01-06T13:06:14;8.00;99.90
45619;DHT22;31343;47.520;19.144;2024-01-06T13:08:42;7.90;99.90
45619;DHT22;31343;47.520;19.144;2024-01-06T13:11:08;8.00;99.90
45619;DHT22;31343;47.520;19.144;2024-01-06T13:13:34;8.00;99.90
45619;DHT22;31343;47.520;19.144;2024-01-06T13:16:00;7.90;99.90
45619;DHT22;31343;47.520;19.144;2024-01-06T13:18:29;7.90;99.90
45619;DHT22;31343;47.520;19.144;2024-01-06T13:20:55;8.00;99.90
45619;DHT22;31343;47.520;19.144;2024-01-06T13:23:21;8.00;99.90
45619;DHT22;31343;47.520;19.144;2024-01-06T13:25:46;8.00;99.90
45619;DHT22;31343;47.520;19.144;2024-01-06T13:28:12;8.00;99.90
45619;DHT22;31343;47.520;19.144;2024-01-06T13:30:38;8.00;99.90
45619;DHT22;31343;47.520;19.144;2024-01-06T13:33:07;8.00;99.90
45619;DHT22;31343;47.520;19.144;2024-01-06T13:35:34;8.00;99.90
45619;DHT22;31343;47.520;19.144;2024-01-06T13:38:02;8.00;99.90
45619;DHT22;31343;47.520;19.144;2024-01-06T13:40:30;8.10;99.90
45619;DHT22;31343;47.520;19.144;2024-01-06T13:42:57;8.00;99.90
45619;DHT22;31343;47.520;19.144;2024-01-06T13:45:23;8.00;99.90
45619;DHT22;31343;47.520;19.144;2024-01-06T13:47:49;8.00;99.90
45619;DHT22;31343;47.520;19.144;2024-01-06T13:50:18;7.90;99.90
45619;DHT22;31343;47.520;19.144;2024-01-06T13:52:45;7.80;99.90
45619;DHT22;31343;47.520;19.144;2024-01-06T13:55:11;7.80;99.90
45619;DHT22;31343;47.520;19.144;2024-01-06T13:57:37;7.90;99.90
45619;DHT22;31343;47.520;19.144;2024-01-06T14:00:07;7.80;99.90
45619;DHT22;31343;47.520;19.144;2024-01-06T14:02:33;7.90;99.90
45619;DHT22;31343;47.520;19.144;2024-01-06T14:04:59;7.90;99.90
45619;DHT22;31343;47.520;19.144;2024-01-06T14:07:25;7.80;99.90
45619;DHT22;31343;47.520;19.144;2024-01-06T14:09:51;7.80;99.90
45619;DHT22;31343;47.520;19.144;2024-01-06T14:12:18;7.80;99.90
45619;DHT22;31343;47.520;19.144;2024-01-06T14:14:46;7.70;99.90
45619;DHT22;31343;47.520;19.144;2024-01-06T14:17:12;7.70;99.90
45619;DHT22;31343;47.520;19.144;2024-01-06T14:19:37;7.80;99.90
45619;DHT22;31343;47.520;19.144;2024-01-06T14:22:03;7.70;99.90
45619;DHT22;31343;47.520;19.144;2024-01-06T14:24:30;7.80;99.90
45619;DHT22;31343;47.520;19.144;2024-01-06T14:26:57;7.70;99.90
45619;DHT22;31343;47.520;19.144;2024-01-06T14:29:22;7.70;99.90
45619;DHT22;31343;47.520;19.144;2024-01-06T14:31:48;7.80;99.90
45619;DHT22;31343;47.520;19.144;2024-01-06T14:34:14;7.60;99.90
45619;DHT22;31343;47.520;19.144;2024-01-06T14:36:41;7.50;99.90
45619;DHT22;31343;47.520;19.144;2024-01-06T14:39:14;7.60;99.90
45619;DHT22;31343;47.520;19.144;2024-01-06T14:41:40;7.60;99.90
45619;DHT22;31343;47.520;19.144;2024-01-06T14:44:06;7.60;99.90
45619;DHT22;31343;47.520;19.144;2024-01-06T14:46:32;7.60;99.90
45619;DHT22;31343;47.520;19.144;2024-01-06T14:48:59;7.70;99.90
45619;DHT22;31343;47.520;19.144;2024-01-06T14:51:25;7.70;99.90
45619;DHT22;31343;47.520;19.144;2024-01-06T14:53:51;7.70;99.90
45619;DHT22;31343;47.520;19.144;2024-01-06T14:56:17;7.80;99.90
45619;DHT22;31343;47.520;19.144;2024-01-06T14:58:43;7.80;99.90
45619;DHT22;31343;47.520;19.144;2024-01-06T15:01:08;7.80;99.90
45619;DHT22;31343;47.520;19.144;2024-01-06T15:03:34;7.80;99.90
45619;DHT22;31343;47.520;19.144;2024-01-06T15:06:00;7.70;99.90
45619;DHT22;31343;47.520;19.144;2024-01-06T15:08:25;7.70;99.90
45619;DHT22;31343;47.520;19.144;2024-01-06T15:10:52;7.70;99.90
45619;DHT22;31343;47.520;19.144;2024-01-06T15:13:18;7.70;99.90
45619;DHT22;31343;47.520;19.144;2024-01-06T15:15:44;7.70;99.90
45619;DHT22;31343;47.520;19.144;2024-01-06T15:18:10;7.60;99.90
45619;DHT22;31343;47.520;19.144;2024-01-06T15:20:36;7.60;99.90
45619;DHT22;31343;47.520;19.144;2024-01-06T15:23:02;7.60;99.90
45619;DHT22;31343;47.520;19.144;2024-01-06T15:25:27;7.70;99.90
45619;DHT22;31343;47.520;19.144;2024-01-06T15:27:53;7.60;99.90
45619;DHT22;31343;47.520;19.144;2024-01-06T15:30:19;7.60;99.90
45619;DHT22;31343;47.520;19.144;2024-01-06T15:32:46;7.70;99.90